createdAt,value
2022-12-16T00:01:42.548Z,11.00
2022-12-16T00:04:12.121Z,10.65
2022-12-16T00:06:40.259Z,11.68
2022-12-16T00:09:08.506Z,9.38
2022-12-16T00:11:36.822Z,10.82
2022-12-16T00:14:05.612Z,10.77
2022-12-16T00:16:34.038Z,10.98
2022-12-16T00:19:02.241Z,11.60
2022-12-16T00:21:34.769Z,11.52
2022-12-16T00:24:02.987Z,11.80
2022-12-16T00:26:31.422Z,11.35
2022-12-16T00:28:59.922Z,11.10
2022-12-16T00:31:28.542Z,11.23
2022-12-16T00:33:58.144Z,11.50
2022-12-16T00:36:26.345Z,11.65
2022-12-16T00:38:56.015Z,11.60
2022-12-16T00:41:24.204Z,11.45
2022-12-16T00:43:52.919Z,11.32
2022-12-16T00:46:21.756Z,11.50
2022-12-16T00:48:50.038Z,11.90
2022-12-16T00:51:18.574Z,10.32
2022-12-16T00:53:46.850Z,11.18
2022-12-16T00:56:18.207Z,12.13
2022-12-16T00:58:46.569Z,10.80
2022-12-16T01:01:15.413Z,10.75
2022-12-16T01:03:43.836Z,10.82
2022-12-16T01:06:14.157Z,10.77
2022-12-16T01:08:48.378Z,11.57
2022-12-16T01:11:20.252Z,10.93
2022-12-16T01:13:52.419Z,11.32
2022-12-16T01:16:23.376Z,9.50
2022-12-16T01:18:51.713Z,10.85
2022-12-16T01:21:19.859Z,11.35
2022-12-16T01:23:49.029Z,10.68
2022-12-16T01:26:20.033Z,10.30
2022-12-16T01:28:50.044Z,10.07
2022-12-16T01:31:20.086Z,12.27
2022-12-16T01:33:48.567Z,10.35
2022-12-16T01:36:16.814Z,9.80
2022-12-16T01:38:45.743Z,9.40
2022-12-16T01:41:15.527Z,10.93
2022-12-16T01:43:46.862Z,10.07
2022-12-16T01:46:21.988Z,9.95
2022-12-16T01:48:56.359Z,11.05
2022-12-16T01:51:28.459Z,9.90
2022-12-16T01:54:00.660Z,10.65
2022-12-16T01:56:31.834Z,10.60
2022-12-16T01:59:02.566Z,10.85
2022-12-16T02:01:30.893Z,10.32
2022-12-16T02:04:02.593Z,10.73
2022-12-16T02:06:31.365Z,11.27
2022-12-16T02:09:02.055Z,9.95
2022-12-16T02:11:58.427Z,10.60
2022-12-16T02:14:48.004Z,10.88
2022-12-16T02:17:29.097Z,10.50
2022-12-16T02:20:40.919Z,9.65
2022-12-16T02:23:30.716Z,10.32
2022-12-16T02:26:20.795Z,9.65
2022-12-16T02:29:09.183Z,10.52
2022-12-16T02:31:47.141Z,9.40
2022-12-16T02:34:24.385Z,11.00
2022-12-16T02:37:06.721Z,10.10
2022-12-16T02:39:39.700Z,10.00
2022-12-16T02:42:14.008Z,9.75
2022-12-16T02:44:50.617Z,10.10
2022-12-16T02:47:20.138Z,9.60
2022-12-16T02:49:50.874Z,10.07
2022-12-16T02:52:22.834Z,9.88
2022-12-16T02:54:54.725Z,10.25
2022-12-16T02:57:43.117Z,10.65
2022-12-16T03:00:13.874Z,9.88
2022-12-16T03:02:54.371Z,9.75
2022-12-16T03:05:26.814Z,10.02
2022-12-16T03:07:57.447Z,10.30
2022-12-16T03:10:30.339Z,9.88
2022-12-16T03:13:00.663Z,9.77
2022-12-16T03:15:32.222Z,10.10
2022-12-16T03:18:03.819Z,10.27
2022-12-16T03:20:37.290Z,10.60
2022-12-16T03:23:11.337Z,9.85
2022-12-16T03:25:44.295Z,10.38
2022-12-16T03:28:26.755Z,9.65
2022-12-16T03:31:02.894Z,9.85
2022-12-16T03:33:36.740Z,9.80
2022-12-16T03:36:10.277Z,10.07
2022-12-16T03:38:39.574Z,9.85
2022-12-16T03:41:09.145Z,9.90
2022-12-16T03:43:38.694Z,10.13
2022-12-16T03:46:09.223Z,10.75
2022-12-16T03:48:47.439Z,9.55
2022-12-16T03:51:15.977Z,11.50
2022-12-16T03:53:44.197Z,11.18
2022-12-16T03:56:13.565Z,9.50
2022-12-16T03:58:41.942Z,11.15
2022-12-16T04:01:11.155Z,9.95
2022-12-16T04:03:40.998Z,10.73
2022-12-16T04:06:09.496Z,10.65
2022-12-16T04:08:37.945Z,11.35
2022-12-16T04:11:23.954Z,11.32
2022-12-16T04:14:09.671Z,11.68
2022-12-16T04:16:55.426Z,13.80
2022-12-16T04:19:45.798Z,11.95
2022-12-16T04:22:33.583Z,10.40
2022-12-16T04:25:06.617Z,10.35
2022-12-16T04:27:34.791Z,9.40
2022-12-16T04:30:21.584Z,9.75
2022-12-16T04:33:12.137Z,10.23
2022-12-16T04:35:59.409Z,9.43
2022-12-16T04:38:45.190Z,8.75
2022-12-16T04:41:31.274Z,10.55
2022-12-16T04:44:20.609Z,9.50
2022-12-16T04:47:15.423Z,9.77
2022-12-16T04:50:01.160Z,9.55
2022-12-16T04:52:47.818Z,9.68
2022-12-16T04:55:33.278Z,10.45
2022-12-16T04:58:22.705Z,9.75
2022-12-16T05:01:08.790Z,9.70
2022-12-16T05:03:55.186Z,8.55
2022-12-16T05:06:41.106Z,9.25
2022-12-16T05:09:28.290Z,9.50
2022-12-16T05:12:13.926Z,9.35
2022-12-16T05:14:59.439Z,9.70
2022-12-16T05:17:45.055Z,8.68
2022-12-16T05:20:30.379Z,10.55
2022-12-16T05:23:16.239Z,8.55
2022-12-16T05:26:03.402Z,12.60
2022-12-16T05:28:48.954Z,27.27
2022-12-16T05:31:34.910Z,42.83
2022-12-16T05:34:20.562Z,31.80
2022-12-16T05:37:05.876Z,21.95
2022-12-16T05:39:54.354Z,18.95
2022-12-16T05:42:41.785Z,14.82
2022-12-16T05:45:27.549Z,12.40
2022-12-16T05:48:12.899Z,12.43
2022-12-16T05:50:58.577Z,10.55
2022-12-16T05:53:43.930Z,10.73
2022-12-16T05:56:29.538Z,10.95
2022-12-16T05:59:16.410Z,9.43
2022-12-16T06:02:02.119Z,9.90
2022-12-16T06:04:48.148Z,9.73
2022-12-16T06:07:33.719Z,10.05
2022-12-16T06:10:19.209Z,10.02
2022-12-16T06:13:05.808Z,9.10
2022-12-16T06:15:52.689Z,8.75
2022-12-16T06:18:38.778Z,8.43
2022-12-16T06:21:24.590Z,9.32
2022-12-16T06:24:10.078Z,9.45
2022-12-16T06:26:55.896Z,8.75
2022-12-16T06:29:41.292Z,8.68
2022-12-16T06:32:28.191Z,8.63
2022-12-16T06:35:13.684Z,7.78
2022-12-16T06:37:59.139Z,8.77
2022-12-16T06:40:44.578Z,8.27
2022-12-16T06:43:30.712Z,8.10
2022-12-16T06:46:16.727Z,8.63
2022-12-16T06:49:00.243Z,9.15
2022-12-16T06:51:46.151Z,9.77
2022-12-16T06:54:31.929Z,9.52
2022-12-16T06:57:17.297Z,8.98
2022-12-16T07:00:03.350Z,10.32
2022-12-16T07:02:48.862Z,9.65
2022-12-16T07:05:36.047Z,10.40
2022-12-16T07:08:21.563Z,9.35
2022-12-16T07:11:16.070Z,9.45
2022-12-16T07:14:03.117Z,8.52
2022-12-16T07:16:49.174Z,9.77
2022-12-16T07:19:34.955Z,9.35
2022-12-16T07:22:22.119Z,9.20
2022-12-16T07:25:07.686Z,8.82
2022-12-16T07:27:53.206Z,8.60
2022-12-16T07:30:38.950Z,9.38
2022-12-16T07:33:24.463Z,9.57
2022-12-16T07:36:10.376Z,8.60
2022-12-16T07:39:08.828Z,8.55
2022-12-16T07:41:54.712Z,8.68
2022-12-16T07:44:39.901Z,8.07
2022-12-16T07:47:25.615Z,8.68
2022-12-16T07:50:11.572Z,9.05
2022-12-16T07:52:57.152Z,8.55
2022-12-16T07:55:44.246Z,8.50
2022-12-16T07:58:29.923Z,8.65
2022-12-16T08:01:15.467Z,8.73
2022-12-16T08:04:01.032Z,8.88
2022-12-16T08:06:46.481Z,9.13
2022-12-16T08:09:31.901Z,9.43
2022-12-16T08:12:19.029Z,9.18
2022-12-16T08:15:04.426Z,9.23
2022-12-16T08:17:50.035Z,9.50
2022-12-16T08:20:38.045Z,8.88
2022-12-16T08:23:23.578Z,8.27
2022-12-16T08:26:09.164Z,9.10
2022-12-16T08:29:05.535Z,11.02
2022-12-16T08:32:04.235Z,9.77
2022-12-16T08:34:49.771Z,9.55
2022-12-16T08:37:35.750Z,9.43
2022-12-16T08:40:36.897Z,8.48
2022-12-16T08:43:22.911Z,10.05
2022-12-16T08:46:12.757Z,10.48
2022-12-16T08:48:58.682Z,10.35
2022-12-16T08:51:44.905Z,10.32
2022-12-16T08:54:30.622Z,9.02
2022-12-16T08:57:16.155Z,9.50
2022-12-16T09:00:01.988Z,9.32
2022-12-16T09:02:49.027Z,8.20
2022-12-16T09:05:35.171Z,9.27
2022-12-16T09:08:22.074Z,8.90
2022-12-16T09:11:08.066Z,9.70
2022-12-16T09:13:53.874Z,9.80
2022-12-16T09:16:40.464Z,9.20
2022-12-16T09:19:29.242Z,8.93
2022-12-16T09:22:14.783Z,9.77
2022-12-16T09:25:00.841Z,9.82
2022-12-16T09:27:49.291Z,9.90
2022-12-16T09:30:34.923Z,9.43
2022-12-16T09:33:20.877Z,9.20
2022-12-16T09:36:07.895Z,9.80
2022-12-16T09:38:53.419Z,9.82
2022-12-16T09:41:51.942Z,9.20
2022-12-16T09:44:55.830Z,10.40
2022-12-16T09:47:49.989Z,9.43
2022-12-16T09:50:41.505Z,8.33
2022-12-16T09:53:32.500Z,10.33
2022-12-16T09:56:22.074Z,8.67
2022-12-16T09:59:12.472Z,8.87
2022-12-16T10:02:10.405Z,7.20
2022-12-16T10:04:56.365Z,7.90
2022-12-16T10:07:43.990Z,8.53
2022-12-16T10:10:41.772Z,8.53
2022-12-16T10:13:35.196Z,8.30
2022-12-16T10:16:29.891Z,7.60
2022-12-16T10:19:24.772Z,9.40
2022-12-16T10:22:18.578Z,8.87
2022-12-16T10:25:13.975Z,8.50
2022-12-16T10:28:04.316Z,8.07
2022-12-16T10:30:52.801Z,8.30
2022-12-16T10:33:40.997Z,8.67
2022-12-16T10:36:32.523Z,6.93
2022-12-16T10:39:23.386Z,7.47
2022-12-16T10:42:11.370Z,7.70
2022-12-16T10:45:07.531Z,7.37
2022-12-16T10:47:52.889Z,8.20
2022-12-16T10:50:35.543Z,8.33
2022-12-16T10:53:23.745Z,8.10
2022-12-16T10:56:19.010Z,8.20
2022-12-16T10:59:10.963Z,7.43
2022-12-16T11:01:58.696Z,9.37
2022-12-16T11:04:49.965Z,8.10
2022-12-16T11:07:48.932Z,7.70
2022-12-16T11:10:47.388Z,7.10
2022-12-16T11:13:39.528Z,7.87
2022-12-16T11:16:29.552Z,8.17
2022-12-16T11:19:16.936Z,7.10
2022-12-16T11:22:03.470Z,7.97
2022-12-16T11:24:49.904Z,7.00
2022-12-16T11:27:41.570Z,7.70
2022-12-16T11:30:39.287Z,8.37
2022-12-16T11:33:31.629Z,8.33
2022-12-16T11:36:28.114Z,7.00
2022-12-16T11:39:14.159Z,8.13
2022-12-16T11:42:03.162Z,8.10
2022-12-16T11:44:55.281Z,7.50
2022-12-16T11:47:51.759Z,7.03
2022-12-16T11:50:39.490Z,6.47
2022-12-16T11:53:44.302Z,6.53
2022-12-16T11:56:35.900Z,6.63
2022-12-16T11:59:44.939Z,6.03
2022-12-16T12:02:34.875Z,7.10
2022-12-16T12:05:20.668Z,6.77
2022-12-16T12:08:21.889Z,5.87
2022-12-16T12:11:26.284Z,6.03
2022-12-16T12:14:33.279Z,5.97
2022-12-16T12:17:29.700Z,6.47
2022-12-16T12:20:27.833Z,6.73
2022-12-16T12:23:18.070Z,6.70
2022-12-16T12:26:10.562Z,6.07
2022-12-16T12:29:07.613Z,7.20
2022-12-16T12:31:59.954Z,6.80
2022-12-16T12:34:52.144Z,6.47
2022-12-16T12:37:43.108Z,6.80
2022-12-16T12:40:40.610Z,6.07
2022-12-16T12:43:42.626Z,6.30
2022-12-16T12:46:38.647Z,6.57
2022-12-16T12:49:34.686Z,6.30
2022-12-16T12:52:34.315Z,6.90
2022-12-16T12:55:28.923Z,6.70
2022-12-16T12:58:16.422Z,6.67
2022-12-16T13:01:09.060Z,6.00
2022-12-16T13:04:01.699Z,6.93
2022-12-16T13:06:48.131Z,6.27
2022-12-16T13:09:46.428Z,6.43
2022-12-16T13:12:44.092Z,5.77
2022-12-16T13:15:38.056Z,6.20
2022-12-16T13:18:41.381Z,6.23
2022-12-16T13:22:03.079Z,6.80
2022-12-16T13:25:02.928Z,7.00
2022-12-16T13:28:04.419Z,6.27
2022-12-16T13:30:52.439Z,6.40
2022-12-16T13:33:46.983Z,7.27
2022-12-16T13:36:37.594Z,5.93
2022-12-16T13:39:40.799Z,6.13
2022-12-16T13:43:07.850Z,6.20
2022-12-16T13:45:57.036Z,6.43
2022-12-16T13:48:49.463Z,6.37
2022-12-16T13:52:07.739Z,6.63
2022-12-16T13:55:03.544Z,6.70
2022-12-16T13:57:55.910Z,6.70
2022-12-16T14:00:46.180Z,7.60
2022-12-16T14:03:37.875Z,6.50
2022-12-16T14:06:28.571Z,7.53
2022-12-16T14:09:14.066Z,7.30
2022-12-16T14:12:09.632Z,7.20
2022-12-16T14:15:02.125Z,7.20
2022-12-16T14:17:54.068Z,7.63
2022-12-16T14:20:49.048Z,7.53
2022-12-16T14:23:56.273Z,7.83
2022-12-16T14:26:42.785Z,8.30
2022-12-16T14:29:38.861Z,7.60
2022-12-16T14:32:40.332Z,7.43
2022-12-16T14:35:32.366Z,7.47
2022-12-16T14:38:31.398Z,6.77
2022-12-16T14:41:16.822Z,8.03
2022-12-16T14:44:02.997Z,8.70
2022-12-16T14:46:50.360Z,8.43
2022-12-16T14:49:40.927Z,8.33
2022-12-16T14:52:37.767Z,8.07
2022-12-16T14:55:31.907Z,7.93
2022-12-16T14:58:27.549Z,8.17
2022-12-16T15:01:26.990Z,8.20
2022-12-16T15:04:13.031Z,8.33
2022-12-16T15:07:02.488Z,7.77
2022-12-16T15:09:50.985Z,8.43
2022-12-16T15:12:40.182Z,7.40
2022-12-16T15:15:29.034Z,8.53
2022-12-16T15:18:18.160Z,8.53
2022-12-16T15:21:09.454Z,8.37
2022-12-16T15:24:00.112Z,8.23
2022-12-16T15:26:47.739Z,7.43
2022-12-16T15:29:46.731Z,7.60
2022-12-16T15:32:47.962Z,7.90
2022-12-16T15:35:43.376Z,8.73
2022-12-16T15:38:41.212Z,8.40
2022-12-16T15:41:40.008Z,8.20
2022-12-16T15:44:33.433Z,8.17
2022-12-16T15:47:19.220Z,9.03
2022-12-16T15:50:06.878Z,8.97
2022-12-16T15:52:55.105Z,8.83
2022-12-16T15:55:47.436Z,9.03
2022-12-16T15:58:41.079Z,9.80
2022-12-16T16:01:35.744Z,10.10
2022-12-16T16:04:21.392Z,8.53
2022-12-16T16:07:09.521Z,9.80
2022-12-16T16:09:56.464Z,8.80
2022-12-16T16:12:44.008Z,8.60
2022-12-16T16:15:33.292Z,8.77
2022-12-16T16:18:21.664Z,9.63
2022-12-16T16:21:07.931Z,9.83
2022-12-16T16:23:53.664Z,9.47
2022-12-16T16:26:46.511Z,9.50
2022-12-16T16:29:32.608Z,9.80
2022-12-16T16:32:20.352Z,10.30
2022-12-16T16:35:05.840Z,10.50
2022-12-16T16:37:51.310Z,9.63
2022-12-16T16:40:45.505Z,9.97
2022-12-16T16:43:31.238Z,9.30
2022-12-16T16:46:17.159Z,9.43
2022-12-16T16:49:04.219Z,9.37
2022-12-16T16:51:49.859Z,9.53
2022-12-16T16:54:35.264Z,9.53
2022-12-16T16:57:21.222Z,9.77
2022-12-16T17:00:06.704Z,9.63
2022-12-16T17:02:52.672Z,11.10
2022-12-16T17:05:40.121Z,9.27
2022-12-16T17:08:30.791Z,9.97
2022-12-16T17:11:16.591Z,16.33
2022-12-16T17:14:02.160Z,15.10
2022-12-16T17:16:47.501Z,13.43
2022-12-16T17:19:29.502Z,12.63
2022-12-16T17:22:16.479Z,12.23
2022-12-16T17:25:01.902Z,11.37
2022-12-16T17:27:47.546Z,11.13
2022-12-16T17:30:35.762Z,12.03
2022-12-16T17:33:21.792Z,11.10
2022-12-16T17:36:08.304Z,11.67
2022-12-16T17:38:59.677Z,11.60
2022-12-16T17:41:43.170Z,11.60
2022-12-16T17:44:25.271Z,12.33
2022-12-16T17:47:11.230Z,11.40
2022-12-16T17:49:56.849Z,13.30
2022-12-16T17:52:42.370Z,12.80
2022-12-16T17:55:29.861Z,11.80
2022-12-16T17:58:15.891Z,11.87
2022-12-16T18:01:01.723Z,12.70
2022-12-16T18:03:47.725Z,12.50
2022-12-16T18:06:33.246Z,11.50
2022-12-16T18:09:19.047Z,11.03
2022-12-16T18:12:07.293Z,12.87
2022-12-16T18:14:52.651Z,11.17
2022-12-16T18:17:38.286Z,11.73
2022-12-16T18:20:24.839Z,11.90
2022-12-16T18:23:11.069Z,13.03
2022-12-16T18:25:56.910Z,12.90
2022-12-16T18:28:43.765Z,12.50
2022-12-16T18:31:29.337Z,13.03
2022-12-16T18:34:14.867Z,12.60
2022-12-16T18:37:00.374Z,13.07
2022-12-16T18:39:46.124Z,12.40
2022-12-16T18:42:31.645Z,11.67
2022-12-16T18:45:18.576Z,11.93
2022-12-16T18:48:04.081Z,11.57
2022-12-16T18:50:49.826Z,10.00
2022-12-16T18:53:35.709Z,11.70
2022-12-16T18:56:24.079Z,12.23
2022-12-16T18:59:10.009Z,12.03
2022-12-16T19:01:57.464Z,11.97
2022-12-16T19:04:43.396Z,11.77
2022-12-16T19:07:40.357Z,11.40
2022-12-16T19:10:26.965Z,13.03
2022-12-16T19:13:29.403Z,13.33
2022-12-16T19:16:15.992Z,13.17
2022-12-16T19:19:03.589Z,13.90
2022-12-16T19:25:03.626Z,12.82
2022-12-16T19:27:49.441Z,13.27
2022-12-16T19:30:35.714Z,12.40
2022-12-16T19:33:21.899Z,11.95
2022-12-16T19:36:09.270Z,13.80
2022-12-16T19:38:56.517Z,12.13
2022-12-16T19:41:38.703Z,12.82
2022-12-16T19:44:24.928Z,13.23
2022-12-16T19:47:10.901Z,14.15
2022-12-16T19:50:07.432Z,14.27
2022-12-16T19:53:03.316Z,14.77
2022-12-16T19:55:48.913Z,13.82
2022-12-16T19:58:38.108Z,12.50
2022-12-16T20:04:29.806Z,12.18
2022-12-16T20:07:18.959Z,11.02
2022-12-16T20:10:10.233Z,10.60
2022-12-16T20:16:01.518Z,11.20
2022-12-16T20:18:46.836Z,11.25
2022-12-16T20:21:32.813Z,10.80
2022-12-16T20:24:18.466Z,11.17
2022-12-16T20:27:05.516Z,10.80
2022-12-16T20:29:51.598Z,11.10
2022-12-16T20:32:37.073Z,11.10
2022-12-16T20:35:23.009Z,9.77
2022-12-16T20:38:08.489Z,10.17
2022-12-16T20:40:54.673Z,10.52
2022-12-16T20:43:43.471Z,11.57
2022-12-16T20:46:29.339Z,10.80
2022-12-16T20:49:14.746Z,11.70
2022-12-16T20:52:00.973Z,11.47
2022-12-16T20:54:46.342Z,10.30
2022-12-16T20:57:31.891Z,10.80
2022-12-16T21:00:19.021Z,10.75
2022-12-16T21:03:01.154Z,10.50
2022-12-16T21:05:45.934Z,11.03
2022-12-16T21:08:31.690Z,10.80
2022-12-16T21:11:17.118Z,10.90
2022-12-16T21:14:02.441Z,11.20
2022-12-16T21:14:28.232Z,12.87
2022-12-16T21:16:49.400Z,11.05
2022-12-16T21:19:35.062Z,11.15
2022-12-16T21:22:20.602Z,11.45
2022-12-16T21:25:06.191Z,12.45
2022-12-16T21:27:52.152Z,11.65
2022-12-16T21:30:38.422Z,12.80
2022-12-16T21:33:25.613Z,10.70
2022-12-16T21:36:11.673Z,12.48
2022-12-16T21:38:57.469Z,11.55
2022-12-16T21:41:43.277Z,12.17
2022-12-16T21:44:28.714Z,11.95
2022-12-16T21:47:14.283Z,11.20
2022-12-16T21:50:01.826Z,11.95
2022-12-16T21:52:47.242Z,13.15
2022-12-16T21:55:33.446Z,11.38
2022-12-16T21:58:18.914Z,11.82
2022-12-16T22:01:11.209Z,11.32
2022-12-16T22:03:56.872Z,12.23
2022-12-16T22:06:48.594Z,12.75
2022-12-16T22:09:35.018Z,11.07
2022-12-16T22:12:20.894Z,12.23
2022-12-16T22:15:05.654Z,11.43
2022-12-16T22:17:57.728Z,11.48
2022-12-16T22:20:44.234Z,12.73
2022-12-16T22:23:31.388Z,11.90
2022-12-16T22:26:17.449Z,12.35
2022-12-16T22:29:02.924Z,12.35
2022-12-16T22:31:48.957Z,11.90
2022-12-16T22:34:34.927Z,11.95
2022-12-16T22:37:20.356Z,11.52
2022-12-16T22:40:07.201Z,11.43
2022-12-16T22:43:04.042Z,11.25
2022-12-16T22:45:49.852Z,11.35
2022-12-16T22:48:35.533Z,11.38
2022-12-16T22:51:21.061Z,12.73
2022-12-16T22:54:07.530Z,11.75
2022-12-16T22:56:56.315Z,12.50
2022-12-16T22:59:42.050Z,12.32
2022-12-16T23:02:27.628Z,12.70
2022-12-16T23:05:13.088Z,13.45
2022-12-16T23:08:01.216Z,12.13
2022-12-16T23:10:46.861Z,12.60
2022-12-16T23:13:48.193Z,12.35
2022-12-16T23:16:33.754Z,14.50
2022-12-16T23:19:19.669Z,13.27
2022-12-16T23:22:07.125Z,12.52
2022-12-16T23:24:52.582Z,13.70
2022-12-16T23:27:38.373Z,13.02
2022-12-16T23:30:26.786Z,13.48
2022-12-16T23:33:15.926Z,12.82
2022-12-16T23:36:01.473Z,14.18
2022-12-16T23:38:47.419Z,12.13
2022-12-16T23:41:32.782Z,13.95
2022-12-16T23:44:18.222Z,13.55
2022-12-16T23:47:05.256Z,13.55
2022-12-16T23:49:50.706Z,13.13
2022-12-16T23:52:40.763Z,13.15
2022-12-16T23:55:27.527Z,13.60
2022-12-16T23:58:16.856Z,12.85
